createdAt,value
2023-01-17T00:00:34.859Z,2.20
2023-01-17T00:03:01.582Z,2.20
2023-01-17T00:05:46.872Z,2.20
2023-01-17T00:08:31.960Z,2.20
2023-01-17T00:10:59.054Z,2.20
2023-01-17T00:13:25.655Z,2.20
2023-01-17T00:15:52.339Z,2.30
2023-01-17T00:18:19.035Z,2.20
2023-01-17T00:21:04.494Z,2.20
2023-01-17T00:23:49.776Z,2.10
2023-01-17T00:26:17.016Z,2.10
2023-01-17T00:28:43.897Z,2.20
2023-01-17T00:31:11.478Z,2.20
2023-01-17T00:33:38.351Z,2.10
2023-01-17T00:36:05.252Z,2.10
2023-01-17T00:38:32.951Z,2.20
2023-01-17T00:41:03.510Z,2.10
2023-01-17T00:43:48.704Z,2.20
2023-01-17T00:46:33.877Z,2.10
2023-01-17T00:49:19.053Z,2.10
2023-01-17T00:52:04.224Z,2.10
2023-01-17T00:54:49.435Z,2.10
2023-01-17T00:57:34.605Z,2.10
2023-01-17T01:00:19.633Z,2.00
2023-01-17T01:03:04.758Z,2.00
2023-01-17T01:05:49.866Z,2.00
2023-01-17T01:08:39.614Z,2.00
2023-01-17T01:11:27.960Z,2.00
2023-01-17T01:14:13.499Z,1.80
2023-01-17T01:16:59.156Z,1.80
2023-01-17T01:19:44.239Z,1.70
2023-01-17T01:22:29.324Z,1.80
2023-01-17T01:25:14.559Z,1.70
2023-01-17T01:27:59.839Z,1.70
2023-01-17T01:30:45.114Z,1.70
2023-01-17T01:33:19.110Z,1.70
2023-01-17T01:35:53.734Z,1.70
2023-01-17T01:38:21.797Z,1.70
2023-01-17T01:40:49.695Z,1.70
2023-01-17T01:43:18.195Z,1.60
2023-01-17T01:45:46.946Z,1.60
2023-01-17T01:48:20.477Z,1.60
2023-01-17T01:50:48.436Z,1.60
2023-01-17T01:53:15.905Z,1.50
2023-01-17T01:55:43.154Z,1.60
2023-01-17T01:58:21.380Z,1.60
2023-01-17T02:00:48.061Z,1.60
2023-01-17T02:03:17.342Z,1.70
2023-01-17T02:05:44.283Z,1.60
2023-01-17T02:08:12.729Z,1.40
2023-01-17T02:10:39.957Z,1.50
2023-01-17T02:13:07.332Z,1.40
2023-01-17T02:15:36.918Z,1.50
2023-01-17T02:18:20.895Z,1.40
2023-01-17T02:20:53.488Z,1.30
2023-01-17T02:23:37.565Z,1.50
2023-01-17T02:26:30.988Z,1.40
2023-01-17T02:29:02.305Z,1.30
2023-01-17T02:31:45.951Z,1.30
2023-01-17T02:34:28.658Z,1.30
2023-01-17T02:37:05.308Z,1.30
2023-01-17T02:39:34.553Z,1.20
2023-01-17T02:42:04.485Z,1.40
2023-01-17T02:44:39.444Z,1.30
2023-01-17T02:47:18.644Z,1.20
2023-01-17T02:49:45.283Z,1.20
2023-01-17T02:52:17.643Z,1.20
2023-01-17T02:54:44.245Z,1.30
2023-01-17T02:57:31.135Z,1.20
2023-01-17T03:00:14.008Z,1.20
2023-01-17T03:02:46.472Z,1.10
2023-01-17T03:05:15.892Z,1.20
2023-01-17T03:07:44.212Z,1.10
2023-01-17T03:10:11.964Z,1.10
2023-01-17T03:12:39.656Z,1.00
2023-01-17T03:15:10.588Z,1.10
2023-01-17T03:17:37.422Z,1.20
2023-01-17T03:20:04.289Z,1.00
2023-01-17T03:22:30.998Z,1.00
2023-01-17T03:24:57.635Z,1.00
2023-01-17T03:27:24.216Z,1.00
2023-01-17T03:29:50.844Z,0.90
2023-01-17T03:32:17.478Z,0.80
2023-01-17T03:34:44.080Z,0.90
2023-01-17T03:37:10.689Z,0.90
2023-01-17T03:39:37.274Z,0.90
2023-01-17T03:42:03.928Z,1.00
2023-01-17T03:44:30.705Z,1.00
2023-01-17T03:46:57.326Z,1.00
2023-01-17T03:49:23.957Z,1.00
2023-01-17T03:51:50.584Z,0.90
2023-01-17T03:54:17.152Z,1.00
2023-01-17T03:56:43.743Z,0.90
2023-01-17T03:59:13.067Z,0.90
2023-01-17T04:01:40.008Z,1.10
2023-01-17T04:04:06.604Z,1.00
2023-01-17T04:06:33.224Z,1.00
2023-01-17T04:08:59.852Z,1.10
2023-01-17T04:11:26.460Z,1.00
2023-01-17T04:13:54.074Z,1.10
2023-01-17T04:16:21.794Z,1.10
2023-01-17T04:18:48.420Z,1.00
2023-01-17T04:21:15.018Z,1.10
2023-01-17T04:23:41.652Z,1.10
2023-01-17T04:26:09.004Z,1.10
2023-01-17T04:28:35.618Z,1.00
2023-01-17T04:31:02.290Z,1.00
2023-01-17T04:33:29.250Z,1.00
2023-01-17T04:35:56.248Z,0.90
2023-01-17T04:38:23.503Z,1.10
2023-01-17T04:40:50.877Z,1.00
2023-01-17T04:43:17.561Z,1.00
2023-01-17T04:45:44.196Z,1.10
2023-01-17T04:48:12.650Z,1.10
2023-01-17T04:50:39.776Z,1.20
2023-01-17T04:53:06.435Z,0.90
2023-01-17T04:55:33.049Z,0.90
2023-01-17T04:57:59.780Z,0.90
2023-01-17T05:00:26.447Z,1.00
2023-01-17T05:02:53.109Z,0.80
2023-01-17T05:05:19.753Z,0.90
2023-01-17T05:07:52.865Z,0.70
2023-01-17T05:10:19.506Z,0.70
2023-01-17T05:12:52.935Z,0.70
2023-01-17T05:15:19.519Z,0.70
2023-01-17T05:17:46.105Z,0.80
2023-01-17T05:20:12.728Z,0.70
2023-01-17T05:22:39.307Z,0.70
2023-01-17T05:25:06.126Z,0.70
2023-01-17T05:27:32.725Z,0.70
2023-01-17T05:29:59.328Z,0.70
2023-01-17T05:32:25.927Z,0.80
2023-01-17T05:34:52.511Z,0.90
2023-01-17T05:37:19.129Z,0.80
2023-01-17T05:39:45.709Z,1.00
2023-01-17T05:42:12.331Z,0.80
2023-01-17T05:44:38.959Z,0.90
2023-01-17T05:47:05.565Z,0.80
2023-01-17T05:49:32.438Z,0.80
2023-01-17T05:51:59.060Z,0.80
2023-01-17T05:54:25.670Z,0.70
2023-01-17T05:56:52.246Z,0.80
2023-01-17T05:59:28.603Z,0.80
2023-01-17T06:02:02.809Z,0.70
2023-01-17T06:04:29.519Z,0.70
2023-01-17T06:06:56.147Z,0.70
2023-01-17T06:09:22.793Z,0.70
2023-01-17T06:11:49.383Z,0.70
2023-01-17T06:14:16.014Z,0.80
2023-01-17T06:16:42.615Z,0.80
2023-01-17T06:19:09.554Z,0.70
2023-01-17T06:21:36.154Z,0.70
2023-01-17T06:24:04.317Z,0.70
2023-01-17T06:26:31.033Z,0.60
2023-01-17T06:28:57.823Z,0.70
2023-01-17T06:31:24.476Z,0.70
2023-01-17T06:33:51.089Z,0.60
2023-01-17T06:36:17.741Z,0.50
2023-01-17T06:38:44.353Z,0.40
2023-01-17T06:41:10.953Z,0.30
2023-01-17T06:43:37.851Z,0.20
2023-01-17T06:46:04.616Z,0.10
2023-01-17T06:48:31.247Z,0.10
2023-01-17T06:50:57.954Z,0.10
2023-01-17T06:53:24.596Z,0.10
2023-01-17T06:55:52.472Z,-0.10
2023-01-17T06:58:19.079Z,-0.20
2023-01-17T07:00:45.808Z,-0.40
2023-01-17T07:03:17.972Z,-0.20
2023-01-17T07:05:44.631Z,-0.50
2023-01-17T07:08:11.247Z,-0.70
2023-01-17T07:10:37.840Z,-0.80
2023-01-17T07:13:04.456Z,-1.00
2023-01-17T07:15:31.034Z,-1.00
2023-01-17T07:18:00.275Z,-1.00
2023-01-17T07:20:26.899Z,-0.80
2023-01-17T07:22:53.512Z,-1.10
2023-01-17T07:25:20.212Z,-1.10
2023-01-17T07:27:46.878Z,-0.90
2023-01-17T07:30:13.870Z,-0.80
2023-01-17T07:32:40.445Z,-0.80
2023-01-17T07:35:07.207Z,-0.70
2023-01-17T07:37:33.819Z,-0.70
2023-01-17T07:40:02.474Z,-0.50
2023-01-17T07:42:29.150Z,-0.50
2023-01-17T07:44:55.745Z,-0.50
2023-01-17T07:47:24.417Z,-0.30
2023-01-17T07:49:51.090Z,-0.20
2023-01-17T07:52:18.359Z,-0.30
2023-01-17T07:54:45.220Z,-0.30
2023-01-17T07:57:12.245Z,-0.30
2023-01-17T07:59:38.877Z,-0.30
2023-01-17T08:02:05.854Z,-0.20
2023-01-17T08:04:35.153Z,-0.20
2023-01-17T08:07:01.987Z,0.00
2023-01-17T08:09:28.788Z,-0.20
2023-01-17T08:11:55.392Z,-0.20
2023-01-17T08:14:22.121Z,-0.10
2023-01-17T08:16:48.772Z,-0.10
2023-01-17T08:19:16.686Z,0.00
2023-01-17T08:21:43.270Z,0.00
2023-01-17T08:24:13.674Z,0.00
2023-01-17T08:26:40.734Z,0.10
2023-01-17T08:29:07.321Z,0.30
2023-01-17T08:31:34.606Z,0.50
2023-01-17T08:34:01.293Z,0.60
2023-01-17T08:36:28.762Z,0.80
2023-01-17T08:38:55.418Z,0.90
2023-01-17T08:41:22.737Z,1.00
2023-01-17T08:43:49.927Z,1.00
2023-01-17T08:46:17.034Z,1.00
2023-01-17T08:48:43.982Z,1.10
2023-01-17T08:51:11.096Z,1.10
2023-01-17T08:53:37.775Z,1.20
2023-01-17T08:56:05.642Z,1.10
2023-01-17T08:58:32.575Z,1.30
2023-01-17T09:00:59.921Z,1.40
2023-01-17T09:03:26.573Z,1.40
2023-01-17T09:06:00.471Z,1.70
2023-01-17T09:08:27.115Z,1.70
2023-01-17T09:10:53.775Z,1.70
2023-01-17T09:13:20.392Z,1.90
2023-01-17T09:15:46.983Z,1.80
2023-01-17T09:18:13.597Z,2.00
2023-01-17T09:20:40.390Z,1.90
2023-01-17T09:23:06.993Z,1.90
2023-01-17T09:25:33.632Z,2.00
2023-01-17T09:28:00.259Z,2.10
2023-01-17T09:30:26.939Z,2.30
2023-01-17T09:32:56.374Z,2.40
2023-01-17T09:35:22.984Z,2.70
2023-01-17T09:37:52.605Z,3.00
2023-01-17T09:40:21.064Z,2.90
2023-01-17T09:42:50.424Z,3.00
2023-01-17T09:45:18.284Z,3.00
2023-01-17T09:47:46.408Z,3.00
2023-01-17T09:50:15.471Z,3.00
2023-01-17T09:52:42.149Z,2.80
2023-01-17T09:55:13.277Z,2.50
2023-01-17T09:57:45.982Z,2.60
2023-01-17T10:00:26.248Z,2.70
2023-01-17T10:03:13.379Z,2.70
2023-01-17T10:05:55.061Z,2.70
2023-01-17T10:08:41.934Z,2.80
2023-01-17T10:11:17.612Z,2.80
2023-01-17T10:13:47.458Z,2.90
2023-01-17T10:16:14.122Z,2.90
2023-01-17T10:19:05.721Z,3.00
2023-01-17T10:21:36.585Z,3.10
2023-01-17T10:24:35.455Z,3.20
2023-01-17T10:27:13.497Z,3.10
2023-01-17T10:29:41.138Z,3.00
2023-01-17T10:32:10.515Z,3.00
2023-01-17T10:34:40.821Z,3.10
2023-01-17T10:37:17.043Z,3.40
2023-01-17T10:39:44.913Z,3.90
2023-01-17T10:42:26.562Z,4.10
2023-01-17T10:44:59.108Z,4.10
2023-01-17T10:47:28.943Z,4.20
2023-01-17T10:49:58.353Z,4.40
2023-01-17T10:52:45.198Z,4.20
2023-01-17T10:55:34.906Z,3.80
2023-01-17T10:58:02.871Z,3.80
2023-01-17T11:00:39.844Z,3.80
2023-01-17T11:03:06.769Z,3.70
2023-01-17T11:05:33.821Z,3.80
2023-01-17T11:08:01.751Z,3.80
2023-01-17T11:10:39.672Z,3.70
2023-01-17T11:13:25.411Z,3.80
2023-01-17T11:15:57.580Z,3.80
2023-01-17T11:18:27.456Z,3.90
2023-01-17T11:21:06.475Z,3.90
2023-01-17T11:23:33.394Z,4.00
2023-01-17T11:26:04.698Z,4.00
2023-01-17T11:28:32.760Z,3.90
2023-01-17T11:31:00.563Z,3.80
2023-01-17T11:33:33.595Z,3.80
2023-01-17T11:36:00.543Z,3.80
2023-01-17T11:38:28.034Z,3.60
2023-01-17T11:41:15.841Z,3.60
2023-01-17T11:43:55.081Z,3.60
2023-01-17T11:46:22.704Z,3.60
2023-01-17T11:49:02.793Z,3.60
2023-01-17T11:51:32.807Z,3.70
2023-01-17T11:54:22.068Z,3.70
2023-01-17T11:56:50.626Z,3.60
2023-01-17T11:59:23.955Z,3.80
2023-01-17T12:01:51.641Z,3.80
2023-01-17T12:04:22.884Z,3.80
2023-01-17T12:07:03.223Z,3.90
2023-01-17T12:09:33.237Z,3.80
2023-01-17T12:12:21.888Z,3.90
2023-01-17T12:14:58.151Z,3.80
2023-01-17T12:17:37.184Z,3.90
2023-01-17T12:20:06.116Z,3.80
2023-01-17T12:22:34.150Z,3.90
2023-01-17T12:25:23.929Z,3.90
2023-01-17T12:28:06.857Z,3.80
2023-01-17T12:30:47.825Z,3.60
2023-01-17T12:33:33.102Z,3.60
2023-01-17T12:36:03.011Z,3.50
2023-01-17T12:38:33.439Z,3.70
2023-01-17T12:41:03.456Z,3.60
2023-01-17T12:43:35.527Z,3.70
2023-01-17T12:46:06.669Z,3.60
2023-01-17T12:48:36.379Z,3.50
2023-01-17T12:51:14.593Z,3.70
2023-01-17T12:53:48.021Z,3.70
2023-01-17T12:56:35.205Z,3.60
2023-01-17T12:59:05.319Z,3.60
2023-01-17T13:01:43.394Z,3.60
2023-01-17T13:04:13.464Z,3.60
2023-01-17T13:06:52.216Z,3.60
2023-01-17T13:09:21.876Z,3.70
2023-01-17T13:11:55.482Z,3.70
2023-01-17T13:14:22.527Z,3.70
2023-01-17T13:16:54.179Z,3.60
2023-01-17T13:19:40.795Z,3.60
2023-01-17T13:22:09.267Z,3.50
2023-01-17T13:24:40.998Z,3.50
2023-01-17T13:27:07.978Z,3.50
2023-01-17T13:29:53.369Z,3.50
2023-01-17T13:32:39.555Z,3.60
2023-01-17T13:35:08.435Z,3.40
2023-01-17T13:37:48.923Z,3.40
2023-01-17T13:40:29.538Z,3.30
2023-01-17T13:42:59.686Z,3.40
2023-01-17T13:45:34.237Z,3.50
2023-01-17T13:48:25.814Z,3.50
2023-01-17T13:50:55.679Z,3.70
2023-01-17T13:53:34.772Z,3.80
2023-01-17T13:56:01.718Z,3.60
2023-01-17T13:58:29.590Z,3.60
2023-01-17T14:00:56.634Z,3.60
2023-01-17T14:03:42.829Z,3.50
2023-01-17T14:06:28.333Z,3.50
2023-01-17T14:09:00.272Z,3.60
2023-01-17T14:11:27.429Z,3.40
2023-01-17T14:13:54.673Z,3.40
2023-01-17T14:16:22.014Z,3.50
2023-01-17T14:18:49.288Z,3.50
2023-01-17T14:21:31.785Z,3.50
2023-01-17T14:24:11.230Z,3.70
2023-01-17T14:26:46.062Z,3.50
2023-01-17T14:29:33.190Z,3.40
2023-01-17T14:32:01.769Z,3.30
2023-01-17T14:34:28.808Z,3.30
2023-01-17T14:37:04.150Z,3.10
2023-01-17T14:39:31.099Z,3.10
2023-01-17T14:41:58.453Z,3.00
2023-01-17T14:44:25.497Z,2.90
2023-01-17T14:46:52.461Z,2.90
2023-01-17T14:49:24.322Z,2.80
2023-01-17T14:52:04.867Z,2.70
2023-01-17T14:54:31.918Z,2.60
2023-01-17T14:57:15.560Z,2.70
2023-01-17T14:59:42.620Z,2.70
2023-01-17T15:02:13.698Z,2.50
2023-01-17T15:04:41.210Z,2.50
2023-01-17T15:07:12.667Z,2.40
2023-01-17T15:09:42.474Z,2.40
2023-01-17T15:12:10.872Z,2.50
2023-01-17T15:14:39.320Z,2.30
2023-01-17T15:17:25.000Z,2.40
2023-01-17T15:19:57.251Z,2.40
2023-01-17T15:22:27.302Z,2.40
2023-01-17T15:24:54.656Z,2.40
2023-01-17T15:27:21.909Z,2.20
2023-01-17T15:29:48.857Z,2.10
2023-01-17T15:32:19.087Z,2.10
2023-01-17T15:34:47.992Z,2.20
2023-01-17T15:37:23.002Z,2.10
2023-01-17T15:39:49.957Z,2.00
2023-01-17T15:42:21.847Z,2.10
2023-01-17T15:44:52.790Z,2.10
2023-01-17T15:47:38.079Z,1.90
2023-01-17T15:50:20.044Z,2.00
2023-01-17T15:52:49.246Z,2.00
2023-01-17T15:55:22.452Z,2.00
2023-01-17T15:57:49.680Z,2.00
2023-01-17T16:00:32.770Z,2.00
2023-01-17T16:02:59.834Z,2.00
2023-01-17T16:05:30.853Z,1.80
2023-01-17T16:08:17.489Z,2.00
2023-01-17T16:10:44.841Z,2.00
2023-01-17T16:13:12.961Z,2.00
2023-01-17T16:15:42.641Z,2.00
2023-01-17T16:18:24.100Z,1.80
2023-01-17T16:20:58.426Z,1.80
2023-01-17T16:23:25.363Z,2.00
2023-01-17T16:25:53.963Z,2.20
2023-01-17T16:28:21.119Z,2.20
2023-01-17T16:30:49.041Z,2.20
2023-01-17T16:33:16.126Z,2.20
2023-01-17T16:35:44.300Z,2.00
2023-01-17T16:38:11.977Z,2.00
2023-01-17T16:40:43.096Z,2.10
2023-01-17T16:43:12.232Z,2.00
2023-01-17T16:45:40.287Z,2.20
2023-01-17T16:48:07.100Z,1.90
2023-01-17T16:50:33.698Z,2.10
2023-01-17T16:53:00.467Z,2.30
2023-01-17T16:55:27.059Z,2.20
2023-01-17T16:57:56.064Z,2.20
2023-01-17T17:00:22.901Z,2.30
2023-01-17T17:02:53.514Z,2.40
2023-01-17T17:05:20.403Z,2.40
2023-01-17T17:07:50.813Z,2.50
2023-01-17T17:10:19.712Z,2.20
2023-01-17T17:12:46.747Z,2.10
2023-01-17T17:15:13.793Z,2.10
2023-01-17T17:17:41.370Z,2.20
2023-01-17T17:20:11.682Z,2.10
2023-01-17T17:22:38.833Z,2.30
2023-01-17T17:25:06.073Z,2.10
2023-01-17T17:27:32.866Z,1.90
2023-01-17T17:29:59.486Z,2.00
2023-01-17T17:32:26.134Z,2.10
2023-01-17T17:34:52.737Z,1.90
2023-01-17T17:37:19.448Z,2.00
2023-01-17T17:39:46.084Z,1.90
2023-01-17T17:42:12.765Z,2.00
2023-01-17T17:44:39.390Z,1.90
2023-01-17T17:47:06.166Z,2.00
2023-01-17T17:49:32.874Z,1.90
2023-01-17T17:52:06.428Z,1.90
2023-01-17T17:54:33.296Z,1.90
2023-01-17T17:57:00.219Z,1.90
2023-01-17T17:59:27.273Z,1.90
2023-01-17T18:01:54.447Z,2.00
2023-01-17T18:04:22.205Z,2.20
2023-01-17T18:06:49.145Z,2.30
2023-01-17T18:09:16.167Z,2.20
2023-01-17T18:11:43.634Z,2.00
2023-01-17T18:14:12.627Z,2.30
2023-01-17T18:16:43.884Z,2.10
2023-01-17T18:19:15.516Z,1.80
2023-01-17T18:21:42.977Z,1.70
2023-01-17T18:24:11.663Z,1.90
2023-01-17T18:26:42.196Z,1.90
2023-01-17T18:29:11.095Z,2.10
2023-01-17T18:31:38.092Z,2.00
2023-01-17T18:34:06.719Z,2.00
2023-01-17T18:36:34.895Z,2.10
2023-01-17T18:39:02.651Z,2.20
2023-01-17T18:41:30.933Z,2.50
2023-01-17T18:44:01.163Z,2.50
2023-01-17T18:46:33.063Z,2.20
2023-01-17T18:49:00.163Z,2.40
2023-01-17T18:51:28.651Z,2.40
2023-01-17T18:53:55.721Z,2.00
2023-01-17T18:56:22.782Z,1.90
2023-01-17T18:58:50.026Z,1.90
2023-01-17T19:01:18.535Z,2.00
2023-01-17T19:03:46.520Z,1.90
2023-01-17T19:06:15.506Z,1.90
2023-01-17T19:08:42.612Z,2.00
2023-01-17T19:11:09.942Z,2.00
2023-01-17T19:13:37.342Z,2.00
2023-01-17T19:16:06.377Z,1.70
2023-01-17T19:18:33.005Z,1.70
2023-01-17T19:21:10.349Z,1.80
2023-01-17T19:23:37.429Z,1.90
2023-01-17T19:26:04.553Z,2.00
2023-01-17T19:28:32.454Z,1.90
2023-01-17T19:31:06.435Z,2.00
2023-01-17T19:33:33.647Z,1.80
2023-01-17T19:36:00.977Z,2.00
2023-01-17T19:38:27.980Z,1.90
2023-01-17T19:40:54.550Z,1.90
2023-01-17T19:43:21.244Z,2.00
2023-01-17T19:46:08.081Z,2.10
2023-01-17T19:48:35.534Z,2.10
2023-01-17T19:51:12.552Z,2.10
2023-01-17T19:53:41.622Z,2.00
2023-01-17T19:56:10.635Z,1.90
2023-01-17T19:58:37.654Z,2.10
2023-01-17T20:01:05.528Z,2.10
2023-01-17T20:03:32.160Z,2.00
2023-01-17T20:05:58.749Z,1.80
2023-01-17T20:08:25.355Z,1.90
2023-01-17T20:10:51.922Z,2.00
2023-01-17T20:13:18.557Z,1.90
2023-01-17T20:15:45.124Z,1.90
2023-01-17T20:18:12.629Z,1.80
2023-01-17T20:20:56.378Z,1.80
2023-01-17T20:23:23.878Z,1.70
2023-01-17T20:25:58.858Z,1.60
2023-01-17T20:28:26.845Z,1.40
2023-01-17T20:30:54.229Z,1.40
2023-01-17T20:33:21.278Z,1.30
2023-01-17T20:35:50.123Z,1.30
2023-01-17T20:38:20.132Z,1.00
2023-01-17T20:40:53.293Z,0.80
2023-01-17T20:43:19.906Z,1.00
2023-01-17T20:45:53.649Z,1.20
2023-01-17T20:48:21.668Z,1.20
2023-01-17T20:50:48.270Z,1.20
2023-01-17T20:53:16.064Z,1.30
2023-01-17T20:55:42.687Z,1.40
2023-01-17T20:58:09.289Z,1.30
2023-01-17T21:00:37.747Z,1.40
2023-01-17T21:03:04.352Z,1.30
2023-01-17T21:05:30.973Z,1.40
2023-01-17T21:07:57.846Z,1.50
2023-01-17T21:10:24.797Z,1.50
2023-01-17T21:12:51.396Z,1.50
2023-01-17T21:15:18.018Z,1.40
2023-01-17T21:17:44.690Z,1.50
2023-01-17T21:20:14.024Z,1.30
2023-01-17T21:22:41.569Z,1.20
2023-01-17T21:25:10.053Z,1.30
2023-01-17T21:27:37.104Z,1.30
2023-01-17T21:30:04.872Z,1.40
2023-01-17T21:32:31.815Z,1.40
2023-01-17T21:34:58.784Z,1.40
2023-01-17T21:37:25.699Z,1.50
2023-01-17T21:39:54.905Z,1.50
2023-01-17T21:42:21.841Z,1.50
2023-01-17T21:44:49.303Z,1.40
2023-01-17T21:47:16.144Z,1.30
2023-01-17T21:49:43.189Z,1.20
2023-01-17T21:52:11.683Z,1.30
2023-01-17T21:54:57.187Z,1.30
2023-01-17T21:57:42.732Z,1.30
2023-01-17T22:00:12.240Z,1.30
2023-01-17T22:02:40.198Z,1.30
2023-01-17T22:05:10.566Z,1.20
2023-01-17T22:07:39.034Z,1.10
2023-01-17T22:10:06.784Z,1.20
2023-01-17T22:12:33.825Z,1.10
2023-01-17T22:15:01.181Z,1.10
2023-01-17T22:17:29.458Z,1.10
2023-01-17T22:19:56.512Z,1.10
2023-01-17T22:22:25.076Z,1.10
2023-01-17T22:24:53.075Z,1.10
2023-01-17T22:27:20.731Z,1.10
2023-01-17T22:29:48.088Z,1.10
2023-01-17T22:32:15.344Z,1.10
2023-01-17T22:34:42.685Z,1.00
2023-01-17T22:37:10.306Z,1.00
2023-01-17T22:39:37.913Z,1.00
2023-01-17T22:42:05.156Z,1.10
2023-01-17T22:44:32.332Z,1.10
2023-01-17T22:46:59.457Z,1.10
2023-01-17T22:49:26.505Z,1.10
2023-01-17T22:51:53.561Z,1.10
2023-01-17T22:54:20.600Z,1.00
2023-01-17T22:56:48.787Z,1.00
2023-01-17T22:59:15.821Z,1.00
2023-01-17T23:01:42.669Z,1.00
2023-01-17T23:04:12.174Z,0.90
2023-01-17T23:06:40.142Z,0.90
2023-01-17T23:09:08.537Z,0.80
2023-01-17T23:11:40.669Z,0.80
2023-01-17T23:14:12.690Z,0.80
2023-01-17T23:16:59.266Z,0.80
2023-01-17T23:19:27.230Z,0.70
2023-01-17T23:22:14.777Z,0.70
2023-01-17T23:24:45.356Z,0.70
2023-01-17T23:27:32.277Z,0.50
2023-01-17T23:29:58.868Z,0.40
2023-01-17T23:32:25.992Z,0.30
2023-01-17T23:34:52.618Z,0.10
2023-01-17T23:37:19.274Z,0.10
2023-01-17T23:39:45.869Z,0.10
2023-01-17T23:42:30.898Z,0.10
2023-01-17T23:44:57.505Z,0.20
2023-01-17T23:47:24.139Z,0.40
2023-01-17T23:49:50.777Z,0.30
2023-01-17T23:52:17.388Z,0.40
2023-01-17T23:54:44.972Z,0.20
2023-01-17T23:57:11.757Z,0.10
2023-01-17T23:59:38.607Z,0.00
